Details for Ryanair at LPPR




Go Back


Latest METAR
Local Time

LPPR 280100Z 34004KT 9999 FEW007 SCT012 BKN035 13/12 Q1017

28/05/2018, 02:28:17

Description
Results
Ryanair Logo
Number of Pilots based at LPPR
1 Pilots Based here
Number of Ryanair Flights Departed from LPPR
3 Flights Departed
Number of Ryanair Flights Arrived at LPPR
5 Flights Arrived
Number of Ryanair Schedules Departing from LPPR
108 Schedules
Number of Ryanair Schedules Arriving at LPPR
111 Schedules
Number of Ryanair Schedules Departing from LPPR availible today
36 Schedules Today
Number of Ryanair Schedules Arriving at LPPR availible today
36 Schedules Today
Average Landing Rate at LPPR
-192 fpm
Ryanair Average Landing Rate at LPPR
-87 fpm
Total Fuel Purchased at LPPR by Ryanair
11,157.47 kgs / 24,597.76 lbs

Pilots Based at LPPR


Pilot ID
Pilot Name
Pilot Rank
No. of Flights
No. of Flying Hours
Fernando Só Silva
176
368.04
Content